sensor_id;sensor_type;location;lat;lon;timestamp;pressure;altitude;pressure_sealevel;temperature;humidity
84944;BME280;75231;53.650;9.788;2024-02-26T00:00:40;100548.66;;;2.88;87.68
84944;BME280;75231;53.650;9.788;2024-02-26T00:03:06;100540.47;;;2.78;88.27
84944;BME280;75231;53.650;9.788;2024-02-26T00:05:31;100546.41;;;2.79;88.15
84944;BME280;75231;53.650;9.788;2024-02-26T00:07:56;100560.69;;;2.85;88.60
84944;BME280;75231;53.650;9.788;2024-02-26T00:10:22;100494.72;;;2.47;88.33
84944;BME280;75231;53.650;9.788;2024-02-26T00:12:47;100507.41;;;2.50;87.89
84944;BME280;75231;53.650;9.788;2024-02-26T00:15:13;100527.72;;;2.53;88.05
84944;BME280;75231;53.650;9.788;2024-02-26T00:17:39;100521.13;;;2.46;87.90
84944;BME280;75231;53.650;9.788;2024-02-26T00:20:05;100546.66;;;2.71;88.00
84944;BME280;75231;53.650;9.788;2024-02-26T00:22:34;100550.38;;;2.63;88.17
84944;BME280;75231;53.650;9.788;2024-02-26T00:24:59;100525.16;;;2.53;87.93
84944;BME280;75231;53.650;9.788;2024-02-26T00:27:27;100530.31;;;2.52;87.87
84944;BME280;75231;53.650;9.788;2024-02-26T00:29:52;100542.91;;;2.57;87.70
84944;BME280;75231;53.650;9.788;2024-02-26T00:32:18;100547.66;;;2.42;87.77
84944;BME280;75231;53.650;9.788;2024-02-26T00:34:43;100525.91;;;2.31;88.35
84944;BME280;75231;53.650;9.788;2024-02-26T00:37:09;100491.50;;;2.17;87.86
84944;BME280;75231;53.650;9.788;2024-02-26T00:39:34;100557.72;;;2.47;88.20
84944;BME280;75231;53.650;9.788;2024-02-26T00:42:00;100544.44;;;2.37;87.96
84944;BME280;75231;53.650;9.788;2024-02-26T00:44:25;100512.94;;;2.12;88.45
84944;BME280;75231;53.650;9.788;2024-02-26T00:46:50;100563.28;;;2.33;88.01
84944;BME280;75231;53.650;9.788;2024-02-26T00:49:16;100517.34;;;2.07;87.89
84944;BME280;75231;53.650;9.788;2024-02-26T00:51:41;100529.81;;;2.16;88.80
84944;BME280;75231;53.650;9.788;2024-02-26T00:54:07;100526.34;;;2.18;88.38
84944;BME280;75231;53.650;9.788;2024-02-26T00:56:34;100548.84;;;2.32;88.03
84944;BME280;75231;53.650;9.788;2024-02-26T00:58:59;100534.81;;;2.19;87.62
84944;BME280;75231;53.650;9.788;2024-02-26T01:01:25;100533.34;;;2.12;87.92
84944;BME280;75231;53.650;9.788;2024-02-26T01:03:50;100537.03;;;2.03;87.96
84944;BME280;75231;53.650;9.788;2024-02-26T01:06:15;100533.69;;;2.01;87.94
84944;BME280;75231;53.650;9.788;2024-02-26T01:08:41;100532.59;;;2.08;87.56
84944;BME280;75231;53.650;9.788;2024-02-26T01:11:06;100524.41;;;1.99;88.26
84944;BME280;75231;53.650;9.788;2024-02-26T01:13:32;100525.28;;;1.98;88.48
84944;BME280;75231;53.650;9.788;2024-02-26T01:15:58;100547.00;;;2.11;87.85
84944;BME280;75231;53.650;9.788;2024-02-26T01:18:23;100527.97;;;1.94;88.21
84944;BME280;75231;53.650;9.788;2024-02-26T01:20:49;100539.00;;;1.95;88.31
84944;BME280;75231;53.650;9.788;2024-02-26T01:23:18;100529.03;;;1.87;88.20
84944;BME280;75231;53.650;9.788;2024-02-26T01:25:46;100553.94;;;2.06;87.61
84944;BME280;75231;53.650;9.788;2024-02-26T01:28:11;100507.31;;;1.74;87.44
84944;BME280;75231;53.650;9.788;2024-02-26T01:30:37;100555.84;;;2.01;87.00
84944;BME280;75231;53.650;9.788;2024-02-26T01:33:02;100534.47;;;1.77;87.77
84944;BME280;75231;53.650;9.788;2024-02-26T01:35:28;100572.09;;;1.96;88.32
84944;BME280;75231;53.650;9.788;2024-02-26T01:37:53;100516.03;;;1.67;88.65
84944;BME280;75231;53.650;9.788;2024-02-26T01:40:19;100569.41;;;2.01;88.78
84944;BME280;75231;53.650;9.788;2024-02-26T01:42:45;100536.91;;;1.80;88.49
84944;BME280;75231;53.650;9.788;2024-02-26T01:45:14;100566.28;;;1.91;88.64
84944;BME280;75231;53.650;9.788;2024-02-26T01:47:50;100548.06;;;1.77;88.77
84944;BME280;75231;53.650;9.788;2024-02-26T01:50:17;100519.75;;;1.57;88.88
84944;BME280;75231;53.650;9.788;2024-02-26T01:52:44;100564.78;;;1.86;88.84
84944;BME280;75231;53.650;9.788;2024-02-26T01:55:12;100537.94;;;1.74;88.26
84944;BME280;75231;53.650;9.788;2024-02-26T01:57:39;100558.28;;;1.76;88.07
84944;BME280;75231;53.650;9.788;2024-02-26T02:00:05;100537.47;;;1.61;88.27
84944;BME280;75231;53.650;9.788;2024-02-26T02:02:33;100541.75;;;1.59;88.68
84944;BME280;75231;53.650;9.788;2024-02-26T02:05:02;100566.84;;;1.73;88.74
84944;BME280;75231;53.650;9.788;2024-02-26T02:07:27;100575.09;;;1.81;89.12
84944;BME280;75231;53.650;9.788;2024-02-26T02:09:53;100535.38;;;1.46;88.32
84944;BME280;75231;53.650;9.788;2024-02-26T02:12:22;100548.78;;;1.53;88.79
84944;BME280;75231;53.650;9.788;2024-02-26T02:14:47;100578.81;;;1.71;88.85
84944;BME280;75231;53.650;9.788;2024-02-26T02:17:13;100544.59;;;1.50;88.93
84944;BME280;75231;53.650;9.788;2024-02-26T02:19:38;100547.09;;;1.52;88.79
84944;BME280;75231;53.650;9.788;2024-02-26T02:22:04;100544.75;;;1.46;88.75
84944;BME280;75231;53.650;9.788;2024-02-26T02:24:29;100551.63;;;1.42;88.82
84944;BME280;75231;53.650;9.788;2024-02-26T02:26:55;100534.00;;;1.34;88.77
84944;BME280;75231;53.650;9.788;2024-02-26T02:29:21;100552.16;;;1.53;88.23
84944;BME280;75231;53.650;9.788;2024-02-26T02:31:46;100556.66;;;1.44;88.81
84944;BME280;75231;53.650;9.788;2024-02-26T02:34:12;100579.06;;;1.63;88.99
84944;BME280;75231;53.650;9.788;2024-02-26T02:36:53;100538.00;;;1.43;88.27
84944;BME280;75231;53.650;9.788;2024-02-26T02:39:20;100559.75;;;1.55;88.19
84944;BME280;75231;53.650;9.788;2024-02-26T02:41:45;100578.28;;;1.60;88.67
84944;BME280;75231;53.650;9.788;2024-02-26T02:44:11;100534.19;;;1.28;88.64
84944;BME280;75231;53.650;9.788;2024-02-26T02:46:36;100548.34;;;1.38;89.11
84944;BME280;75231;53.650;9.788;2024-02-26T02:49:02;100584.19;;;1.62;89.15
84944;BME280;75231;53.650;9.788;2024-02-26T02:51:27;100542.31;;;1.41;88.57
84944;BME280;75231;53.650;9.788;2024-02-26T02:53:53;100557.56;;;1.43;88.47
84944;BME280;75231;53.650;9.788;2024-02-26T02:56:18;100550.31;;;1.29;88.33
84944;BME280;75231;53.650;9.788;2024-02-26T02:58:44;100586.19;;;1.51;88.89
84944;BME280;75231;53.650;9.788;2024-02-26T03:01:09;100578.03;;;1.39;88.89
84944;BME280;75231;53.650;9.788;2024-02-26T03:03:35;100565.31;;;1.39;88.61
84944;BME280;75231;53.650;9.788;2024-02-26T03:06:02;100553.56;;;1.34;88.75
84944;BME280;75231;53.650;9.788;2024-02-26T03:08:27;100577.78;;;1.49;88.88
84944;BME280;75231;53.650;9.788;2024-02-26T03:10:52;100556.88;;;1.36;88.60
84944;BME280;75231;53.650;9.788;2024-02-26T03:13:18;100585.47;;;1.47;88.53
84944;BME280;75231;53.650;9.788;2024-02-26T03:15:43;100580.53;;;1.41;89.04
84944;BME280;75231;53.650;9.788;2024-02-26T03:18:08;100571.31;;;1.37;89.26
84944;BME280;75231;53.650;9.788;2024-02-26T03:20:34;100587.19;;;1.47;88.73
84944;BME280;75231;53.650;9.788;2024-02-26T03:22:59;100576.28;;;1.42;88.82
84944;BME280;75231;53.650;9.788;2024-02-26T03:25:27;100591.72;;;1.35;88.56
84944;BME280;75231;53.650;9.788;2024-02-26T03:27:53;100591.50;;;1.45;89.43
84944;BME280;75231;53.650;9.788;2024-02-26T03:30:18;100585.53;;;1.44;88.61
84944;BME280;75231;53.650;9.788;2024-02-26T03:32:43;100590.63;;;1.44;88.63
84944;BME280;75231;53.650;9.788;2024-02-26T03:35:09;100589.16;;;1.37;88.87
84944;BME280;75231;53.650;9.788;2024-02-26T03:37:34;100598.53;;;1.36;89.10
84944;BME280;75231;53.650;9.788;2024-02-26T03:39:59;100606.97;;;1.38;88.78
84944;BME280;75231;53.650;9.788;2024-02-26T03:42:27;100605.13;;;1.42;89.31
84944;BME280;75231;53.650;9.788;2024-02-26T03:44:52;100603.63;;;1.36;88.93
84944;BME280;75231;53.650;9.788;2024-02-26T03:47:17;100618.59;;;1.47;88.85
84944;BME280;75231;53.650;9.788;2024-02-26T03:49:43;100606.84;;;1.42;88.93
84944;BME280;75231;53.650;9.788;2024-02-26T03:52:08;100609.56;;;1.37;88.66
84944;BME280;75231;53.650;9.788;2024-02-26T03:54:33;100614.66;;;1.37;88.62
84944;BME280;75231;53.650;9.788;2024-02-26T03:56:59;100634.09;;;1.39;89.52
84944;BME280;75231;53.650;9.788;2024-02-26T03:59:24;100626.63;;;1.33;89.00
84944;BME280;75231;53.650;9.788;2024-02-26T04:01:50;100620.91;;;1.25;89.54
84944;BME280;75231;53.650;9.788;2024-02-26T04:04:16;100644.25;;;1.41;89.60
84944;BME280;75231;53.650;9.788;2024-02-26T04:06:47;100631.59;;;1.38;89.58
84944;BME280;75231;53.650;9.788;2024-02-26T04:09:14;100630.06;;;1.32;89.15
84944;BME280;75231;53.650;9.788;2024-02-26T04:11:39;100639.19;;;1.39;89.09
84944;BME280;75231;53.650;9.788;2024-02-26T04:14:05;100650.28;;;1.38;88.96
84944;BME280;75231;53.650;9.788;2024-02-26T04:16:33;100646.00;;;1.39;89.36
84944;BME280;75231;53.650;9.788;2024-02-26T04:18:59;100647.88;;;1.32;89.41
84944;BME280;75231;53.650;9.788;2024-02-26T04:21:24;100650.31;;;1.37;89.46
84944;BME280;75231;53.650;9.788;2024-02-26T04:23:51;100650.53;;;1.28;89.38
84944;BME280;75231;53.650;9.788;2024-02-26T04:26:20;100650.69;;;1.23;89.14
84944;BME280;75231;53.650;9.788;2024-02-26T04:28:46;100684.31;;;1.36;89.20
84944;BME280;75231;53.650;9.788;2024-02-26T04:31:11;100673.56;;;1.25;89.19
84944;BME280;75231;53.650;9.788;2024-02-26T04:33:36;100680.47;;;1.21;89.21
84944;BME280;75231;53.650;9.788;2024-02-26T04:36:02;100690.47;;;1.27;89.40
84944;BME280;75231;53.650;9.788;2024-02-26T04:38:28;100686.34;;;1.23;89.58
84944;BME280;75231;53.650;9.788;2024-02-26T04:40:53;100694.78;;;1.25;89.22
84944;BME280;75231;53.650;9.788;2024-02-26T04:43:19;100695.63;;;1.26;89.09
84944;BME280;75231;53.650;9.788;2024-02-26T04:45:44;100699.94;;;1.24;89.28
84944;BME280;75231;53.650;9.788;2024-02-26T04:48:09;100699.09;;;1.23;89.05
84944;BME280;75231;53.650;9.788;2024-02-26T04:50:35;100694.16;;;1.17;89.18
84944;BME280;75231;53.650;9.788;2024-02-26T04:53:00;100708.50;;;1.20;89.27
84944;BME280;75231;53.650;9.788;2024-02-26T04:55:28;100709.34;;;1.20;89.74
84944;BME280;75231;53.650;9.788;2024-02-26T04:57:54;100706.59;;;1.28;89.86
84944;BME280;75231;53.650;9.788;2024-02-26T05:00:19;100689.69;;;1.25;89.32
84944;BME280;75231;53.650;9.788;2024-02-26T05:02:44;100717.06;;;1.50;89.50
84944;BME280;75231;53.650;9.788;2024-02-26T05:05:11;100721.13;;;1.57;88.71
84944;BME280;75231;53.650;9.788;2024-02-26T05:07:41;100720.94;;;1.64;88.77
84944;BME280;75231;53.650;9.788;2024-02-26T05:10:07;100714.22;;;1.60;88.71
84944;BME280;75231;53.650;9.788;2024-02-26T05:12:33;100728.28;;;1.75;90.92
84944;BME280;75231;53.650;9.788;2024-02-26T05:15:00;100723.69;;;1.88;90.24
84944;BME280;75231;53.650;9.788;2024-02-26T05:17:25;100726.81;;;1.98;90.25
84944;BME280;75231;53.650;9.788;2024-02-26T05:19:50;100728.22;;;2.08;90.91
84944;BME280;75231;53.650;9.788;2024-02-26T05:22:16;100733.84;;;2.19;90.41
84944;BME280;75231;53.650;9.788;2024-02-26T05:24:42;100737.09;;;2.24;90.63
84944;BME280;75231;53.650;9.788;2024-02-26T05:27:07;100738.88;;;2.22;90.58
84944;BME280;75231;53.650;9.788;2024-02-26T05:29:33;100733.03;;;2.18;90.48
84944;BME280;75231;53.650;9.788;2024-02-26T05:31:58;100736.13;;;2.28;90.53
84944;BME280;75231;53.650;9.788;2024-02-26T05:34:23;100737.75;;;2.31;90.49
84944;BME280;75231;53.650;9.788;2024-02-26T05:36:49;100720.00;;;1.98;90.69
84944;BME280;75231;53.650;9.788;2024-02-26T05:39:14;100745.84;;;2.17;90.46
84944;BME280;75231;53.650;9.788;2024-02-26T05:41:39;100757.34;;;2.30;90.15
84944;BME280;75231;53.650;9.788;2024-02-26T05:44:07;100770.81;;;2.35;90.07
84944;BME280;75231;53.650;9.788;2024-02-26T05:46:34;100764.94;;;2.32;90.36
84944;BME280;75231;53.650;9.788;2024-02-26T05:49:00;100762.84;;;2.16;90.83
84944;BME280;75231;53.650;9.788;2024-02-26T05:51:25;100763.59;;;2.20;90.16
84944;BME280;75231;53.650;9.788;2024-02-26T05:53:50;100766.09;;;2.21;90.14
84944;BME280;75231;53.650;9.788;2024-02-26T05:56:20;100774.31;;;2.31;90.84
84944;BME280;75231;53.650;9.788;2024-02-26T05:58:45;100781.09;;;2.32;90.64
84944;BME280;75231;53.650;9.788;2024-02-26T06:01:11;100773.09;;;2.15;90.28
84944;BME280;75231;53.650;9.788;2024-02-26T06:03:36;100781.63;;;2.14;90.62
84944;BME280;75231;53.650;9.788;2024-02-26T06:06:01;100779.78;;;2.19;90.58
84944;BME280;75231;53.650;9.788;2024-02-26T06:08:27;100777.31;;;2.16;90.58
84944;BME280;75231;53.650;9.788;2024-02-26T06:10:52;100783.97;;;2.21;90.49
84944;BME280;75231;53.650;9.788;2024-02-26T06:13:17;100785.56;;;2.26;90.36
84944;BME280;75231;53.650;9.788;2024-02-26T06:15:43;100789.78;;;2.27;90.57
84944;BME280;75231;53.650;9.788;2024-02-26T06:18:08;100789.28;;;2.14;90.98
84944;BME280;75231;53.650;9.788;2024-02-26T06:20:33;100792.34;;;2.27;90.98
84944;BME280;75231;53.650;9.788;2024-02-26T06:22:59;100789.63;;;2.31;90.71
84944;BME280;75231;53.650;9.788;2024-02-26T06:25:24;100789.34;;;2.12;91.12
84944;BME280;75231;53.650;9.788;2024-02-26T06:27:50;100795.78;;;2.24;91.85
84944;BME280;75231;53.650;9.788;2024-02-26T06:30:16;100808.66;;;2.21;91.84
84944;BME280;75231;53.650;9.788;2024-02-26T06:32:41;100795.78;;;2.26;91.42
84944;BME280;75231;53.650;9.788;2024-02-26T06:35:07;100792.16;;;2.33;90.89
84944;BME280;75231;53.650;9.788;2024-02-26T06:37:34;100803.84;;;2.40;91.11
84944;BME280;75231;53.650;9.788;2024-02-26T06:40:03;100806.78;;;2.57;90.36
84944;BME280;75231;53.650;9.788;2024-02-26T06:42:34;100811.22;;;2.50;90.34
84944;BME280;75231;53.650;9.788;2024-02-26T06:45:00;100816.22;;;2.53;90.70
84944;BME280;75231;53.650;9.788;2024-02-26T06:47:25;100822.44;;;2.45;91.26
84944;BME280;75231;53.650;9.788;2024-02-26T06:49:51;100819.56;;;2.56;91.10
84944;BME280;75231;53.650;9.788;2024-02-26T06:52:16;100823.22;;;2.47;91.22
84944;BME280;75231;53.650;9.788;2024-02-26T06:54:42;100826.81;;;2.40;91.88
84944;BME280;75231;53.650;9.788;2024-02-26T06:57:10;100819.94;;;2.43;91.86
84944;BME280;75231;53.650;9.788;2024-02-26T06:59:36;100832.22;;;2.60;91.43
84944;BME280;75231;53.650;9.788;2024-02-26T07:02:01;100810.38;;;2.50;91.52
84944;BME280;75231;53.650;9.788;2024-02-26T07:04:26;100829.78;;;2.56;91.18
84944;BME280;75231;53.650;9.788;2024-02-26T07:06:52;100823.75;;;2.58;91.37
84944;BME280;75231;53.650;9.788;2024-02-26T07:09:17;100823.75;;;2.58;91.24
84944;BME280;75231;53.650;9.788;2024-02-26T07:11:42;100829.09;;;2.50;91.35
84944;BME280;75231;53.650;9.788;2024-02-26T07:14:09;100833.59;;;2.70;91.70
84944;BME280;75231;53.650;9.788;2024-02-26T07:16:34;100833.56;;;2.72;90.95
84944;BME280;75231;53.650;9.788;2024-02-26T07:18:59;100840.38;;;2.71;91.33
84944;BME280;75231;53.650;9.788;2024-02-26T07:21:25;100839.66;;;2.68;91.23
84944;BME280;75231;53.650;9.788;2024-02-26T07:23:50;100833.75;;;2.66;91.91
84944;BME280;75231;53.650;9.788;2024-02-26T07:26:15;100845.78;;;2.90;91.54
84944;BME280;75231;53.650;9.788;2024-02-26T07:28:45;100849.03;;;2.95;91.02
84944;BME280;75231;53.650;9.788;2024-02-26T07:31:14;100844.25;;;2.85;91.11
84944;BME280;75231;53.650;9.788;2024-02-26T07:33:39;100843.03;;;2.96;90.92
84944;BME280;75231;53.650;9.788;2024-02-26T07:36:05;100834.38;;;2.74;91.33
84944;BME280;75231;53.650;9.788;2024-02-26T07:38:33;100821.09;;;2.91;90.88
84944;BME280;75231;53.650;9.788;2024-02-26T07:40:58;100812.50;;;2.64;91.16
84944;BME280;75231;53.650;9.788;2024-02-26T07:43:24;100845.22;;;3.08;90.75
84944;BME280;75231;53.650;9.788;2024-02-26T07:45:49;100839.09;;;2.86;91.24
84944;BME280;75231;53.650;9.788;2024-02-26T07:48:14;100853.31;;;2.95;90.76
84944;BME280;75231;53.650;9.788;2024-02-26T07:50:40;100849.03;;;2.95;90.91
84944;BME280;75231;53.650;9.788;2024-02-26T07:53:06;100872.56;;;3.06;91.25
84944;BME280;75231;53.650;9.788;2024-02-26T07:55:31;100866.41;;;3.12;90.56
84944;BME280;75231;53.650;9.788;2024-02-26T07:57:56;100873.88;;;3.18;91.12
84944;BME280;75231;53.650;9.788;2024-02-26T08:00:22;100890.47;;;3.33;90.80
84944;BME280;75231;53.650;9.788;2024-02-26T08:02:47;100890.38;;;3.36;90.35
84944;BME280;75231;53.650;9.788;2024-02-26T08:05:12;100898.44;;;3.50;90.10
84944;BME280;75231;53.650;9.788;2024-02-26T08:07:38;100889.00;;;3.52;90.06
84944;BME280;75231;53.650;9.788;2024-02-26T08:10:03;100894.28;;;3.48;89.98
84944;BME280;75231;53.650;9.788;2024-02-26T08:12:30;100888.16;;;3.53;89.76
84944;BME280;75231;53.650;9.788;2024-02-26T08:14:55;100902.91;;;3.44;90.38
84944;BME280;75231;53.650;9.788;2024-02-26T08:17:21;100914.88;;;3.43;90.77
84944;BME280;75231;53.650;9.788;2024-02-26T08:19:46;100916.06;;;3.59;90.73
84944;BME280;75231;53.650;9.788;2024-02-26T08:22:11;100908.97;;;3.68;89.76
84944;BME280;75231;53.650;9.788;2024-02-26T08:24:41;100909.88;;;3.93;89.89
84944;BME280;75231;53.650;9.788;2024-02-26T08:27:07;100912.31;;;3.96;88.66
84944;BME280;75231;53.650;9.788;2024-02-26T08:29:32;100915.63;;;3.73;90.32
84944;BME280;75231;53.650;9.788;2024-02-26T08:31:57;100918.72;;;3.83;89.72
84944;BME280;75231;53.650;9.788;2024-02-26T08:34:23;100914.69;;;3.76;89.36
84944;BME280;75231;53.650;9.788;2024-02-26T08:36:48;100917.34;;;3.73;90.52
84944;BME280;75231;53.650;9.788;2024-02-26T08:39:14;100915.50;;;3.76;90.25
84944;BME280;75231;53.650;9.788;2024-02-26T08:41:39;100923.44;;;3.95;89.81
84944;BME280;75231;53.650;9.788;2024-02-26T08:44:05;100925.00;;;3.99;89.83
84944;BME280;75231;53.650;9.788;2024-02-26T08:46:30;100911.72;;;3.88;89.75
84944;BME280;75231;53.650;9.788;2024-02-26T08:48:56;100910.34;;;4.04;89.67
84944;BME280;75231;53.650;9.788;2024-02-26T08:51:21;100924.41;;;3.91;89.80
84944;BME280;75231;53.650;9.788;2024-02-26T08:53:47;100920.13;;;4.18;89.80
84944;BME280;75231;53.650;9.788;2024-02-26T08:56:12;100926.63;;;4.27;89.45
84944;BME280;75231;53.650;9.788;2024-02-26T08:58:42;100913.03;;;4.25;89.60
84944;BME280;75231;53.650;9.788;2024-02-26T09:01:07;100929.28;;;4.48;89.48
84944;BME280;75231;53.650;9.788;2024-02-26T09:03:33;100916.53;;;4.47;89.20
84944;BME280;75231;53.650;9.788;2024-02-26T09:05:58;100920.44;;;4.32;90.23
84944;BME280;75231;53.650;9.788;2024-02-26T09:08:23;100934.13;;;4.56;90.00
84944;BME280;75231;53.650;9.788;2024-02-26T09:10:49;100926.63;;;4.52;89.83
84944;BME280;75231;53.650;9.788;2024-02-26T09:13:14;100924.44;;;4.64;89.65
84944;BME280;75231;53.650;9.788;2024-02-26T09:15:40;100940.28;;;4.75;89.05
84944;BME280;75231;53.650;9.788;2024-02-26T09:18:06;100940.38;;;4.72;88.83
84944;BME280;75231;53.650;9.788;2024-02-26T09:20:31;100939.66;;;4.92;88.34
84944;BME280;75231;53.650;9.788;2024-02-26T09:23:01;100930.94;;;4.96;88.57
84944;BME280;75231;53.650;9.788;2024-02-26T09:25:27;100938.00;;;5.13;87.70
84944;BME280;75231;53.650;9.788;2024-02-26T09:27:52;100950.34;;;5.03;88.73
84944;BME280;75231;53.650;9.788;2024-02-26T09:30:18;100949.34;;;5.08;88.51
84944;BME280;75231;53.650;9.788;2024-02-26T09:32:45;100945.47;;;5.19;87.37
84944;BME280;75231;53.650;9.788;2024-02-26T09:35:14;100950.50;;;5.22;87.52
84944;BME280;75231;53.650;9.788;2024-02-26T09:37:39;100943.34;;;5.30;87.19
84944;BME280;75231;53.650;9.788;2024-02-26T09:40:05;100958.38;;;5.40;87.45
84944;BME280;75231;53.650;9.788;2024-02-26T09:42:31;100963.94;;;5.51;87.00
84944;BME280;75231;53.650;9.788;2024-02-26T09:45:01;100960.28;;;5.34;87.34
84944;BME280;75231;53.650;9.788;2024-02-26T09:47:31;100967.03;;;5.59;87.58
84944;BME280;75231;53.650;9.788;2024-02-26T09:49:59;100968.34;;;5.69;86.92
84944;BME280;75231;53.650;9.788;2024-02-26T09:52:28;100972.59;;;5.70;87.35
84944;BME280;75231;53.650;9.788;2024-02-26T09:54:53;100966.44;;;5.74;86.81
84944;BME280;75231;53.650;9.788;2024-02-26T09:57:19;100974.19;;;5.73;86.77
84944;BME280;75231;53.650;9.788;2024-02-26T09:59:44;100974.63;;;5.62;86.67
84944;BME280;75231;53.650;9.788;2024-02-26T10:02:13;100964.59;;;5.56;87.43
84944;BME280;75231;53.650;9.788;2024-02-26T10:04:42;100981.06;;;5.72;87.52
84944;BME280;75231;53.650;9.788;2024-02-26T10:07:14;100966.88;;;5.84;86.38
84944;BME280;75231;53.650;9.788;2024-02-26T10:09:39;100970.84;;;5.93;86.03
84944;BME280;75231;53.650;9.788;2024-02-26T10:12:08;100987.16;;;5.92;86.67
84944;BME280;75231;53.650;9.788;2024-02-26T10:14:34;100982.69;;;5.97;86.65
84944;BME280;75231;53.650;9.788;2024-02-26T10:16:59;100978.22;;;6.02;86.37
84944;BME280;75231;53.650;9.788;2024-02-26T10:19:28;100988.41;;;6.24;86.19
84944;BME280;75231;53.650;9.788;2024-02-26T10:21:59;100989.19;;;6.05;86.21
84944;BME280;75231;53.650;9.788;2024-02-26T10:24:26;100993.09;;;6.14;86.73
84944;BME280;75231;53.650;9.788;2024-02-26T10:26:52;100992.28;;;6.34;86.18
84944;BME280;75231;53.650;9.788;2024-02-26T10:29:20;100990.81;;;6.28;86.08
84944;BME280;75231;53.650;9.788;2024-02-26T10:31:45;100983.53;;;6.38;85.73
84944;BME280;75231;53.650;9.788;2024-02-26T10:34:11;100996.13;;;6.44;86.01
84944;BME280;75231;53.650;9.788;2024-02-26T10:36:36;100995.22;;;6.45;86.62
84944;BME280;75231;53.650;9.788;2024-02-26T10:39:05;100999.25;;;6.71;86.46
84944;BME280;75231;53.650;9.788;2024-02-26T10:41:33;100987.31;;;6.70;85.71
84944;BME280;75231;53.650;9.788;2024-02-26T10:43:58;100992.69;;;6.64;85.48
84944;BME280;75231;53.650;9.788;2024-02-26T10:46:24;101006.06;;;6.72;85.60
84944;BME280;75231;53.650;9.788;2024-02-26T10:48:51;100993.78;;;6.79;84.67
84944;BME280;75231;53.650;9.788;2024-02-26T10:51:20;100998.28;;;6.73;84.40
84944;BME280;75231;53.650;9.788;2024-02-26T10:53:50;100996.50;;;6.94;85.00
84944;BME280;75231;53.650;9.788;2024-02-26T10:56:19;100999.50;;;7.04;83.96
84944;BME280;75231;53.650;9.788;2024-02-26T10:58:46;100994.03;;;7.12;83.99
84944;BME280;75231;53.650;9.788;2024-02-26T11:01:12;101005.09;;;7.33;83.44
84944;BME280;75231;53.650;9.788;2024-02-26T11:03:38;100997.88;;;7.22;83.14
84944;BME280;75231;53.650;9.788;2024-02-26T11:06:04;101001.13;;;7.25;83.55
84944;BME280;75231;53.650;9.788;2024-02-26T11:08:31;101005.66;;;7.39;83.16
84944;BME280;75231;53.650;9.788;2024-02-26T11:10:59;100992.72;;;7.22;82.41
84944;BME280;75231;53.650;9.788;2024-02-26T11:13:28;101004.50;;;7.45;81.63
84944;BME280;75231;53.650;9.788;2024-02-26T11:15:55;101009.06;;;7.40;83.03
84944;BME280;75231;53.650;9.788;2024-02-26T11:18:23;101009.06;;;7.40;83.67
84944;BME280;75231;53.650;9.788;2024-02-26T11:20:51;101007.53;;;7.54;82.37
84944;BME280;75231;53.650;9.788;2024-02-26T11:23:17;100999.72;;;7.18;82.20
84944;BME280;75231;53.650;9.788;2024-02-26T11:25:45;101013.56;;;7.35;82.06
84944;BME280;75231;53.650;9.788;2024-02-26T11:28:16;100991.25;;;7.35;82.14
84944;BME280;75231;53.650;9.788;2024-02-26T11:30:45;101009.34;;;7.34;81.40
84944;BME280;75231;53.650;9.788;2024-02-26T11:33:12;101008.78;;;7.08;83.01
84944;BME280;75231;53.650;9.788;2024-02-26T11:35:40;100986.88;;;7.18;82.77
84944;BME280;75231;53.650;9.788;2024-02-26T11:38:06;101000.56;;;7.19;82.75
84944;BME280;75231;53.650;9.788;2024-02-26T11:40:32;101013.91;;;7.08;83.51
84944;BME280;75231;53.650;9.788;2024-02-26T11:42:58;101007.75;;;7.31;81.94
84944;BME280;75231;53.650;9.788;2024-02-26T11:48:15;101005.28;;;7.28;82.52
84944;BME280;75231;53.650;9.788;2024-02-26T11:50:50;101024.91;;;7.12;82.62
84944;BME280;75231;53.650;9.788;2024-02-26T11:53:31;101000.78;;;7.14;82.60
84944;BME280;75231;53.650;9.788;2024-02-26T11:59:04;101035.47;;;7.43;81.27
84944;BME280;75231;53.650;9.788;2024-02-26T12:01:47;101042.97;;;7.10;82.56
84944;BME280;75231;53.650;9.788;2024-02-26T12:07:05;101032.84;;;7.07;82.24
84944;BME280;75231;53.650;9.788;2024-02-26T12:09:34;101045.44;;;7.32;80.88
84944;BME280;75231;53.650;9.788;2024-02-26T12:12:02;101049.69;;;7.33;81.27
84944;BME280;75231;53.650;9.788;2024-02-26T12:14:28;101044.88;;;7.44;82.37
84944;BME280;75231;53.650;9.788;2024-02-26T12:16:54;101055.78;;;7.49;80.84
84944;BME280;75231;53.650;9.788;2024-02-26T12:19:21;101060.31;;;7.44;79.91
84944;BME280;75231;53.650;9.788;2024-02-26T12:21:51;101051.91;;;7.41;80.66
84944;BME280;75231;53.650;9.788;2024-02-26T12:24:18;101058.72;;;7.23;81.68
84944;BME280;75231;53.650;9.788;2024-02-26T12:26:43;101051.69;;;7.26;81.49
84944;BME280;75231;53.650;9.788;2024-02-26T12:29:09;101054.25;;;7.45;81.25
84944;BME280;75231;53.650;9.788;2024-02-26T12:31:36;101069.16;;;7.57;81.30
84944;BME280;75231;53.650;9.788;2024-02-26T12:34:02;101068.19;;;7.41;81.23
84944;BME280;75231;53.650;9.788;2024-02-26T12:36:27;101077.50;;;7.25;80.87
84944;BME280;75231;53.650;9.788;2024-02-26T12:38:53;101081.53;;;7.31;81.46
84944;BME280;75231;53.650;9.788;2024-02-26T12:41:18;101083.69;;;7.00;81.49
84944;BME280;75231;53.650;9.788;2024-02-26T12:43:43;101091.84;;;7.31;81.71
84944;BME280;75231;53.650;9.788;2024-02-26T12:46:10;101093.06;;;7.22;80.61
84944;BME280;75231;53.650;9.788;2024-02-26T12:48:36;101095.66;;;7.01;81.68
84944;BME280;75231;53.650;9.788;2024-02-26T12:51:01;101081.72;;;6.87;81.70
84944;BME280;75231;53.650;9.788;2024-02-26T12:53:27;101094.81;;;6.81;81.79
84944;BME280;75231;53.650;9.788;2024-02-26T12:55:53;101103.13;;;6.87;82.62
84944;BME280;75231;53.650;9.788;2024-02-26T12:58:21;101110.19;;;7.03;82.30
84944;BME280;75231;53.650;9.788;2024-02-26T13:00:53;101103.94;;;6.88;81.68
84944;BME280;75231;53.650;9.788;2024-02-26T13:03:22;101110.25;;;6.81;83.06